Fish Creek, WI

11:23 PM CDT on July 31, 2014 (GMT -0500)
Oconto Municipal (KOCQ) Elev 604 ft | 44.87 °N, 87.91 °W | Change Station

Current weather conditions updated 28 minutes ago

Clear
Clear
61 °F
Feels Like 61 °F
N
0
Wind Variable Wind from North

Tomorrow is forecast to be Cooler than today. Scattered thunderstorms.

Today
High -- | Low -- °F
--% Chance of Precip.
Yesterday
High -- | Low -- °F
Precip. -- in
5:32 AM 8:16 PM
Waxing Crescent, 23% visible
Pressure 29.97 in
Visibility 10.0 miles
Clouds Clear
Dew Point 60 °F
Humidity 99%
Rainfall 0.00 in
Snow Depth Not available.
UV 0 out of 12
Pollen 7.40 out of 12
Air Quality Not available.
Flu Activity Not available.
METAR KOCQ 010355Z AUTO 00000KT 10SM CLR 16/16 A2997 RMK AO1 T01590158

More Conditions Fewer Conditions

Pressure 29.97 in
Visibility 10.0 miles
Clouds Clear
Dew Point 60 °F
Humidity 99%
Rainfall 0.00 in
Snow Depth Not available.
UV 0 out of 12
Pollen 7.40 out of 12
Air Quality Not available.
Flu Activity Not available.
METAR KOCQ 010355Z AUTO 00000KT 10SM CLR 16/16 A2997 RMK AO1 T01590158

More Conditions Fewer Conditions

10-Day Weather Forecast

Almanac

Astronomy

Jul. 31, 2014 Rise Set
Actual Time 5:32 AM CDT 8:16 PM CDT
Civil Twilight 4:58 AM CDT 8:50 PM CDT
Nautical Twilight 4:15 AM CDT 9:33 PM CDT
Astronomical Twilight 3:25 AM CDT 10:23 PM CDT
Moon 10:14 AM CDT (7/31) 10:13 PM CDT (7/31)
Length of Visible Light 15h 51m
Length of Day
14h 44m
Tomorrow will be 2m 24s shorter.
Waxing Crescent, 23% of the Moon is Illuminated
Aug 1
Waxing Crescent
Aug 3
First Quarter
Aug 10
Full
Aug 17
Last Quarter
Aug 25
New

Today's Extremes

State Highs State Lows

Community

WunderPhotos

Upload Photos

1,739,510 photos uploaded!

Nearby

Snow Depth

Station Depth Elevation
No new snow has been reported.

Earthquake Activity

City Distance Mag. Time & Date
No recent earthquake activity has been reported nearby.
Minimum magnitude displayed is 2.5.

Coastal Water Temperatures

Place Temperature
No Stations Reporting

Nearby Weather Stations

Station Location Temp. Dew Point Humidity Wind Precip. Elev Updated Type
Egg Harbor WI, Egg Harbor, WI 64.0 °F 62 °F 93% North  at  0.0 mph 0.00 in / hr 650 ft 11:23 PM CDT Normal
2 miles North of town, Sister Bay, WI 64.7 °F 58 °F 78% ENE  at  4.0 mph 0.00 in / hr 710 ft 11:18 PM CDT Normal
Rowleys Bay, Ellison Bay, WI 60.4 °F 57 °F 88% NW  at  0.0 mph 0.00 in / hr 574 ft 11:23 PM CDT Rapid Fire
MARITIME , Ellison Bay, WI 65 °F - - North  at  0 mph 0.00 in / hr 583 ft 10:40 PM CDT MADIS
Leif Everson Observatory, Sturgeon Bay, WI 57.8 °F 58 °F 99% SSW  at  0.0 mph 0.00 in / hr 636 ft 11:22 PM CDT Normal
Tyco Fire Protection, Marinette, WI 66.9 °F 58 °F 74% ENE  at  3.0 mph 0.00 in / hr 617 ft 11:22 PM CDT Normal
South Shore Drive, Washington Island, WI 58.2 °F 57 °F 97% NE  at  0.0 mph 0.00 in / hr 604 ft 11:20 PM CDT Normal

Show More Stations Show Fewer Stations